Time;durP1;ratioP1;P1;durP2;ratioP2;P2;SDS_P1;SDS_P2;PMS_P1;PMS_P2;Temp;Humidity;BMP_temperature;BMP_pressure;BME280_temperature;BME280_humidity;BME280_pressure;Samples;Min_cycle;Max_cycle;Signal;HPM_P1;HPM_P2
2022/06/01 00:00:29;;;;;;;9.47;8.23;;;;;;;8.21;100.00;96288.31;10413043;28;20200;-82
2022/06/01 00:05:29;;;;;;;9.43;7.73;;;;;;;8.15;100.00;96296.75;10394626;28;20220;-82
2022/06/01 00:10:30;;;;;;;8.90;8.00;;;;;;;8.16;100.00;96279.28;10412588;28;20188;-82
2022/06/01 00:15:30;;;;;;;9.93;6.93;;;;;;;8.32;100.00;96266.34;10411318;28;20185;-83
2022/06/01 00:20:31;;;;;;;10.43;7.43;;;;;;;8.26;100.00;96272.19;10412205;28;20193;-82
2022/06/01 00:25:31;;;;;;;9.77;6.73;;;;;;;8.32;100.00;96266.34;10412220;28;20270;-81
2022/06/01 00:30:32;;;;;;;7.37;6.67;;;;;;;8.31;100.00;96267.31;10393733;28;20192;-81
2022/06/01 00:35:32;;;;;;;8.10;5.90;;;;;;;8.34;100.00;96276.63;10411853;28;20202;-81
2022/06/01 00:40:32;;;;;;;7.60;5.93;;;;;;;8.34;100.00;96276.63;10411004;28;20193;-82
2022/06/01 00:45:33;;;;;;;6.00;5.40;;;;;;;8.38;100.00;96267.53;10411296;28;20229;-82
2022/06/01 00:50:36;;;;;;;6.43;5.70;;;;;;;8.35;100.00;96263.44;10411036;28;20204;-80
2022/06/01 00:55:40;;;;;;;6.60;5.37;;;;;;;8.21;100.00;96269.22;10410721;28;20298;-81
2022/06/01 01:00:42;;;;;;;5.80;5.27;;;;;;;8.09;100.00;96270.44;10392325;28;20189;-81
2022/06/01 01:05:48;;;;;;;6.90;5.83;;;;;;;8.01;100.00;96269.41;10409801;28;20227;-81
2022/06/01 01:10:48;;;;;;;5.17;4.57;;;;;;;8.02;100.00;96275.44;10392506;28;20527;-80
2022/06/01 01:15:55;;;;;;;6.03;5.43;;;;;;;7.91;100.00;96283.50;10410589;28;20188;-81
2022/06/01 01:21:03;;;;;;;10.60;5.70;;;;;;;7.85;100.00;96290.94;10393430;28;20656;-81
2022/06/01 01:26:05;;;;;;;5.97;5.13;;;;;;;7.77;100.00;96303.09;10392426;28;20696;-81
2022/06/01 01:31:16;;;;;;;5.87;4.93;;;;;;;7.76;100.00;96309.28;10357365;28;20202;-81
2022/06/01 01:36:21;;;;;;;5.33;4.70;;;;;;;7.70;100.00;96313.28;10311244;28;20178;-80
2022/06/01 01:41:39;;;;;;;6.77;4.30;;;;;;;7.70;100.00;96315.91;10328269;28;20193;-80
2022/06/01 01:46:40;;;;;;;6.20;4.60;;;;;;;7.62;100.00;96319.25;10327196;28;20221;-81
2022/06/01 01:51:40;;;;;;;6.10;4.23;;;;;;;7.50;100.00;96310.00;10327873;28;20240;-81
2022/06/01 01:56:48;;;;;;;5.10;4.17;;;;;;;7.29;100.00;96318.09;10327017;28;20708;-80
2022/06/01 02:01:56;;;;;;;6.40;5.80;;;;;;;7.18;100.00;96320.88;10310368;28;20738;-80
2022/06/01 02:06:57;;;;;;;6.70;4.70;;;;;;;7.17;100.00;96333.09;10309542;28;20299;-80
2022/06/01 02:17:20;;;;;;;8.90;6.30;;;;;;;6.53;100.00;96332.09;10312546;28;20186;-80
2022/06/01 02:22:21;;;;;;;7.77;5.60;;;;;;;6.55;100.00;96335.38;10309931;28;20204;-81
2022/06/01 02:27:22;;;;;;;6.67;6.07;;;;;;;6.53;100.00;96343.31;10327007;28;20224;-80
2022/06/01 02:32:25;;;;;;;10.73;5.10;;;;;;;6.69;100.00;96341.91;10326887;28;20221;-80
2022/06/01 02:37:29;;;;;;;6.33;5.67;;;;;;;6.33;100.00;96349.53;10328849;28;20370;-80
2022/06/01 02:42:30;;;;;;;7.03;5.83;;;;;;;6.36;100.00;96352.66;10316647;28;20197;-80
2022/06/01 02:47:34;;;;;;;8.17;5.63;;;;;;;6.35;100.00;96342.38;10334052;28;20725;-80
2022/06/01 02:52:35;;;;;;;7.10;6.20;;;;;;;6.06;100.00;96338.88;10333530;28;20194;-80
2022/06/01 02:57:40;;;;;;;6.43;5.83;;;;;;;6.09;100.00;96336.94;10333281;28;20324;-79
2022/06/01 03:02:42;;;;;;;6.67;5.97;;;;;;;6.22;100.00;96342.69;10337804;28;20217;-80
2022/06/01 03:07:42;;;;;;;5.97;4.90;;;;;;;5.98;100.00;96341.31;10370497;28;20823;-80
2022/06/01 03:12:43;;;;;;;6.33;5.63;;;;;;;5.80;100.00;96342.94;10369739;28;20189;-80
2022/06/01 03:17:44;;;;;;;5.27;4.67;;;;;;;5.60;100.00;96331.69;10369609;28;20186;-80
2022/06/01 03:22:44;;;;;;;7.33;6.00;;;;;;;5.61;100.00;96339.34;10369800;28;20275;-80
2022/06/01 03:27:45;;;;;;;8.20;5.60;;;;;;;5.70;100.00;96348.13;10352016;28;20337;-80
2022/06/01 03:32:46;;;;;;;6.23;5.63;;;;;;;5.64;100.00;96352.06;10369195;28;20248;-80
2022/06/01 03:37:47;;;;;;;6.33;5.03;;;;;;;5.62;100.00;96353.16;10368984;28;20953;-80
2022/06/01 03:42:48;;;;;;;6.37;5.27;;;;;;;5.62;100.00;96358.34;10351341;28;20201;-80
2022/06/01 03:47:49;;;;;;;10.40;6.73;;;;;;;5.47;100.00;96357.94;10367486;28;20229;-80
2022/06/01 03:52:50;;;;;;;9.47;6.00;;;;;;;5.46;100.00;96359.69;10366809;28;20611;-80
2022/06/01 03:57:51;;;;;;;8.97;6.47;;;;;;;5.47;100.00;96373.53;10367346;28;20291;-80
2022/06/01 04:02:52;;;;;;;9.23;5.93;;;;;;;5.67;100.00;96369.19;10369161;28;20189;-80
2022/06/01 04:07:52;;;;;;;5.93;5.30;;;;;;;5.77;100.00;96374.38;10353075;28;20228;-81
2022/06/01 04:12:52;;;;;;;6.50;5.23;;;;;;;5.98;100.00;96376.91;10371596;28;20288;-80
2022/06/01 04:17:53;;;;;;;5.90;5.30;;;;;;;6.24;100.00;96374.56;10371418;28;20240;-80
2022/06/01 04:22:56;;;;;;;7.73;5.87;;;;;;;6.49;100.00;96380.16;10370908;28;20197;-81
2022/06/01 04:27:57;;;;;;;10.83;5.50;;;;;;;6.56;100.00;96374.25;10370893;28;20302;-80
2022/06/01 04:32:58;;;;;;;8.17;5.40;;;;;;;6.88;100.00;96372.28;10370831;28;20216;-79
2022/06/01 04:38:12;;;;;;;6.53;5.17;;;;;;;7.23;100.00;96376.81;10352935;28;20603;-81
2022/06/01 04:43:17;;;;;;;9.37;4.30;;;;;;;7.67;100.00;96376.16;10370487;28;20208;-81
2022/06/01 04:48:18;;;;;;;5.23;3.70;;;;;;;8.05;100.00;96374.25;10370034;28;20213;-80
2022/06/01 04:53:19;;;;;;;5.50;3.57;;;;;;;8.52;100.00;96375.84;10370272;28;20209;-81
2022/06/01 04:58:19;;;;;;;4.00;2.63;;;;;;;9.03;100.00;96365.53;10369276;28;20237;-81
2022/06/01 05:03:19;;;;;;;3.37;2.70;;;;;;;9.78;100.00;96365.66;10369839;28;20189;-81
2022/06/01 05:08:20;;;;;;;4.63;2.60;;;;;;;10.06;100.00;96364.56;10368736;28;20304;-82
2022/06/01 05:13:21;;;;;;;3.00;2.40;;;;;;;10.60;100.00;96357.06;10369734;28;20196;-82
2022/06/01 05:18:21;;;;;;;3.20;2.00;;;;;;;11.38;100.00;96342.47;10369154;28;20645;-81
2022/06/01 05:23:23;;;;;;;4.20;2.08;;;;;;;11.77;100.00;96341.59;10369167;28;20200;-81
2022/06/01 05:28:26;;;;;;;3.67;2.00;;;;;;;12.08;100.00;96337.31;10369433;28;20224;-81
2022/06/01 05:33:27;;;;;;;2.08;1.88;;;;;;;12.33;97.29;96311.72;10368671;28;20232;-81
2022/06/01 05:38:27;;;;;;;3.45;2.40;;;;;;;12.42;93.06;96302.75;10368904;28;20193;-81
2022/06/01 05:43:28;;;;;;;2.28;1.60;;;;;;;12.70;94.37;96338.16;10368839;28;20668;-81
2022/06/01 05:48:28;;;;;;;1.90;1.80;;;;;;;12.60;87.72;96288.47;10351047;28;20217;-82
2022/06/01 05:53:28;;;;;;;4.38;2.13;;;;;;;12.70;87.07;96301.34;10368775;28;20205;-80
2022/06/01 05:58:29;;;;;;;6.43;1.92;;;;;;;12.89;86.26;96300.81;10350467;28;20667;-79
2022/06/01 06:03:30;;;;;;;4.40;2.08;;;;;;;13.32;86.59;96313.28;10368752;28;20644;-80
2022/06/01 06:08:30;;;;;;;3.03;1.73;;;;;;;13.50;84.48;96310.31;10367555;28;20624;-80
2022/06/01 06:13:31;;;;;;;1.95;1.73;;;;;;;13.74;80.07;96257.31;10374168;28;20251;-81
2022/06/01 06:18:31;;;;;;;2.28;1.73;;;;;;;13.29;79.19;96264.53;10375489;28;20588;-80
2022/06/01 06:23:31;;;;;;;1.95;1.73;;;;;;;13.88;79.77;96283.78;10375546;28;20683;-80
2022/06/01 06:28:32;;;;;;;2.35;1.60;;;;;;;14.42;77.64;96279.78;10375601;28;20231;-80
2022/06/01 06:33:33;;;;;;;3.58;1.20;;;;;;;14.53;75.56;96239.75;10374709;28;20189;-80
2022/06/01 06:38:35;;;;;;;2.47;1.60;;;;;;;15.44;72.96;96236.13;10375468;28;20197;-80
2022/06/01 06:43:35;;;;;;;2.20;1.60;;;;;;;16.25;71.63;96239.72;10374924;28;20186;-79
2022/06/01 06:48:37;;;;;;;2.33;1.63;;;;;;;16.66;68.39;96206.06;10377545;28;20232;-79
2022/06/01 06:53:37;;;;;;;2.10;1.60;;;;;;;15.68;70.03;96228.66;10373378;28;20213;-80
2022/06/01 06:58:37;;;;;;;2.08;1.60;;;;;;;18.40;61.33;96115.75;10354681;28;20197;-79
2022/06/01 07:03:38;;;;;;;3.15;1.80;;;;;;;16.67;65.12;96197.13;10372164;28;20659;-79
2022/06/01 07:08:44;;;;;;;2.65;2.10;;;;;;;16.61;65.80;96208.53;10372353;28;20249;-78
2022/06/01 07:13:46;;;;;;;1.90;1.80;;;;;;;17.99;62.34;96159.59;10372093;28;20208;-79
2022/06/01 07:18:48;;;;;;;2.13;1.73;;;;;;;18.22;60.96;96139.63;10371918;28;20820;-80
2022/06/01 07:23:49;;;;;;;3.83;1.70;;;;;;;18.36;61.73;96162.31;10371005;28;20193;-79
2022/06/01 07:28:50;;;;;;;1.88;1.50;;;;;;;18.33;60.01;96133.56;10371814;28;20209;-81
2022/06/01 07:33:53;;;;;;;2.13;1.75;;;;;;;17.77;60.74;96138.75;10382166;28;20200;-78
2022/06/01 07:44:13;;;;;;;2.58;1.63;;;;;;;17.80;60.20;96146.25;10412354;28;20191;-78
2022/06/01 07:49:13;;;;;;;4.18;1.83;;;;;;;17.98;61.27;96187.16;10384475;28;20225;-79
2022/06/01 07:54:14;;;;;;;2.17;1.17;;;;;;;19.43;56.60;96121.22;10330680;28;20242;-78
2022/06/01 07:59:15;;;;;;;2.30;1.38;;;;;;;18.86;54.66;96061.34;10331269;28;20204;-77
2022/06/01 08:04:16;;;;;;;1.33;1.23;;;;;;;18.76;58.14;96156.59;10338816;28;20193;-78
2022/06/01 08:09:16;;;;;;;2.00;1.30;;;;;;;19.41;54.93;96099.41;10368535;28;20782;-73
2022/06/01 08:14:18;;;;;;;1.85;1.30;;;;;;;19.44;55.13;96106.91;10370116;28;20209;-73
2022/06/01 08:19:19;;;;;;;3.20;1.60;;;;;;;18.66;55.38;96093.41;10368075;28;20193;-73
2022/06/01 08:24:19;;;;;;;2.92;1.58;;;;;;;17.19;59.26;96165.41;10367881;28;20189;-74
2022/06/01 08:29:19;;;;;;;2.20;1.55;;;;;;;17.51;58.13;96129.16;10369005;28;20200;-73
2022/06/01 08:34:20;;;;;;;3.63;1.45;;;;;;;18.08;56.51;96115.06;10368446;28;20762;-74
2022/06/01 08:39:20;;;;;;;1.58;1.25;;;;;;;19.72;54.56;96119.53;10401033;28;20196;-74
2022/06/01 08:44:31;;;;;;;1.33;1.23;;;;;;;21.16;50.97;96076.53;10409791;28;20611;-74
2022/06/01 08:49:33;;;;;;;2.83;1.42;;;;;;;21.06;50.32;96058.53;10408631;28;20649;-74
2022/06/01 08:54:34;;;;;;;2.42;1.60;;;;;;;19.82;52.23;96076.50;10409543;28;20351;-74
2022/06/01 08:59:45;;;;;;;2.97;1.35;;;;;;;20.49;51.25;96083.25;10391036;28;20281;-74
2022/06/01 09:04:47;;;;;;;2.10;1.42;;;;;;;21.21;51.08;96100.63;10390392;28;20239;-74
2022/06/01 09:10:21;;;;;;;3.05;1.73;;;;;;;22.56;47.17;96030.38;10337126;28;20200;-73
2022/06/01 09:15:26;;;;;;;2.10;1.60;;;;;;;22.54;48.58;96069.88;10366685;28;20189;-74
2022/06/01 09:25:52;;;;;;;3.50;1.85;;;;;;;21.90;51.06;96158.31;10353191;28;20224;-74
2022/06/01 09:30:59;;;;;;;2.53;1.90;;;;;;;20.71;53.88;96203.22;10367377;28;20193;-73
2022/06/01 09:36:09;;;;;;;2.17;1.60;;;;;;;20.21;56.02;96241.72;10356032;28;20757;-75
2022/06/01 09:41:22;;;;;;;2.50;1.88;;;;;;;19.96;55.38;96232.06;10387888;28;20224;-76
2022/06/01 09:46:33;;;;;;;3.25;1.95;;;;;;;20.60;52.98;96178.22;10410145;28;20266;-75
2022/06/01 09:51:38;;;;;;;5.53;2.20;;;;;;;19.95;55.83;96243.75;10399283;28;20211;-75
2022/06/01 09:56:47;;;;;;;2.25;1.90;;;;;;;21.13;51.38;96167.59;10415934;28;20718;-75
2022/06/01 10:07:22;;;;;;;2.40;2.05;;;;;;;20.90;52.22;96206.53;10416050;28;20219;-75
2022/06/01 10:12:29;;;;;;;3.47;2.42;;;;;;;19.57;53.53;96210.34;10415480;28;20583;-74
2022/06/01 10:17:36;;;;;;;2.65;2.33;;;;;;;17.51;59.70;96306.59;10396384;28;20189;-74
2022/06/01 10:22:44;;;;;;;3.17;2.42;;;;;;;17.44;59.99;96285.47;10390032;28;20816;-74
2022/06/01 10:27:54;;;;;;;3.58;2.60;;;;;;;17.48;59.99;96289.28;10356438;28;20221;-74
2022/06/01 10:33:12;;;;;;;3.67;2.20;;;;;;;19.40;55.00;96210.16;10373732;28;20221;-75
2022/06/01 10:38:17;;;;;;;2.75;2.03;;;;;;;20.97;52.67;96182.47;10356331;28;20181;-75
2022/06/01 10:43:24;;;;;;;4.95;2.00;;;;;;;21.17;52.40;96176.72;10373474;28;20658;-75
2022/06/01 10:48:30;;;;;;;3.08;1.63;;;;;;;22.40;48.85;96117.47;10372656;28;20256;-74
2022/06/01 10:53:41;;;;;;;2.75;1.77;;;;;;;22.21;48.89;96118.78;10372666;28;20212;-75
2022/06/01 10:58:42;;;;;;;1.80;1.70;;;;;;;21.42;50.87;96144.41;10354079;28;20192;-74
2022/06/01 11:04:28;;;;;;;2.13;1.52;;;;;;;22.55;48.84;96130.19;10373127;28;20185;-75
2022/06/01 11:09:38;;;;;;;1.85;1.25;;;;;;;22.74;49.26;96144.06;10361685;28;20677;-75
2022/06/01 11:14:44;;;;;;;4.68;1.40;;;;;;;23.90;43.86;96023.56;10354419;28;20197;-74
2022/06/01 11:20:04;;;;;;;2.70;1.50;;;;;;;22.66;44.27;95996.84;10395449;28;20287;-73
2022/06/01 11:25:18;;;;;;;2.92;1.60;;;;;;;21.52;47.88;96069.19;10394392;28;20744;-73
2022/06/01 11:30:21;;;;;;;6.68;1.50;;;;;;;21.46;45.51;96016.84;10394963;28;20667;-74
2022/06/01 11:35:36;;;;;;;2.10;1.40;;;;;;;21.34;45.86;96038.22;10394846;28;20258;-74
2022/06/01 11:40:49;;;;;;;5.53;1.50;;;;;;;21.68;45.67;96039.06;10394769;28;20554;-74
2022/06/01 11:46:02;;;;;;;2.60;1.50;;;;;;;22.22;46.24;96072.34;10411930;28;20224;-75
2022/06/01 11:51:10;;;;;;;2.35;1.50;;;;;;;21.73;46.97;96070.34;10353991;28;20259;-74
2022/06/01 11:56:36;;;;;;;4.78;1.60;;;;;;;22.73;46.33;96081.03;10376798;28;20228;-75
2022/06/01 12:01:56;;;;;;;7.40;1.90;;;;;;;19.28;49.37;96041.97;10408006;28;20944;-73
2022/06/01 12:07:14;;;;;;;3.45;1.77;;;;;;;21.47;46.13;96035.25;10393865;28;20212;-74
2022/06/01 12:12:34;;;;;;;5.78;1.30;;;;;;;21.69;45.14;96011.34;10366785;28;20281;-73
2022/06/01 12:17:36;;;;;;;1.70;1.50;;;;;;;23.07;43.02;95991.91;10367128;28;20194;-74
2022/06/01 12:28:31;;;;;;;4.63;1.98;;;;;;;21.88;44.46;95982.56;10325092;28;20214;-74
2022/06/01 12:34:03;;;;;;;1.60;1.30;;;;;;;21.60;45.48;95999.50;10480226;28;20564;-61
2022/06/01 12:39:05;;;;;;;2.25;1.42;;;;;;;19.38;49.08;96028.13;10478090;28;21022;-62
2022/06/01 12:44:09;;;;;;;6.47;1.92;;;;;;;17.33;64.08;96367.38;10479748;28;20187;-62
2022/06/01 12:49:36;;;;;;;7.45;1.83;;;;;;;16.05;75.45;96406.19;10478983;28;20637;-64
2022/06/01 12:54:42;;;;;;;4.22;1.70;;;;;;;16.76;79.76;96363.34;10477734;28;20223;-62
2022/06/01 12:59:43;;;;;;;5.80;1.60;;;;;;;17.77;75.32;96312.81;10465352;28;20705;-62
2022/06/01 13:04:55;;;;;;;3.97;1.92;;;;;;;19.12;80.92;96359.41;10447739;28;20200;-63
2022/06/01 13:10:02;;;;;;;3.40;1.45;;;;;;;20.63;63.63;96211.56;10473898;28;20571;-64
2022/06/01 13:15:12;;;;;;;3.13;1.77;;;;;;;20.55;60.38;96146.19;10477746;28;20187;-63
2022/06/01 13:20:22;;;;;;;2.13;1.48;;;;;;;20.41;57.37;96119.03;10475471;28;20219;-63
2022/06/01 13:25:26;;;;;;;1.98;1.50;;;;;;;19.56;58.39;96128.19;10476327;28;20187;-63
2022/06/01 13:30:29;;;;;;;2.03;1.60;;;;;;;18.44;67.74;96284.03;10476544;28;20728;-63
2022/06/01 13:35:36;;;;;;;4.85;1.65;;;;;;;17.85;68.45;96267.50;10475415;28;20196;-63
2022/06/01 13:40:46;;;;;;;4.10;2.65;;;;;;;18.84;72.69;96334.09;10470851;28;20278;-62
2022/06/01 13:45:57;;;;;;;4.10;1.92;;;;;;;18.19;80.82;96366.22;10448373;28;20204;-62
2022/06/01 13:50:59;;;;;;;2.78;1.77;;;;;;;18.45;72.95;96271.59;10447655;28;20207;-62
2022/06/01 13:56:09;;;;;;;2.88;1.90;;;;;;;18.66;65.92;96182.84;10446216;28;20192;-62
2022/06/01 14:01:15;;;;;;;4.43;1.45;;;;;;;19.28;61.03;96142.91;10444435;28;20255;-65
2022/06/01 14:06:16;;;;;;;2.65;1.40;;;;;;;19.34;56.86;96069.47;10431513;28;20197;-63
2022/06/01 14:11:28;;;;;;;4.13;1.55;;;;;;;19.71;68.04;96293.34;10425662;23;20321;-60
2022/06/01 14:16:29;;;;;;;3.40;1.73;;;;;;;21.18;62.69;96181.81;10266821;28;20697;-61
2022/06/01 14:21:29;;;;;;;3.50;1.50;;;;;;;21.96;49.91;95965.34;10255030;28;20322;-59
2022/06/01 14:31:48;;;;;;;3.63;1.40;;;;;;;22.19;50.74;96043.50;10264482;28;20210;-59
2022/06/01 14:36:49;;;;;;;3.97;2.13;;;;;;;21.97;50.61;96040.81;10283386;28;20202;-61
2022/06/01 14:41:50;;;;;;;2.80;1.40;;;;;;;22.11;49.68;96034.06;10282027;28;20321;-60
2022/06/01 14:46:51;;;;;;;3.75;2.40;;;;;;;23.22;47.64;96036.69;10284448;28;20206;-58
2022/06/01 14:51:56;;;;;;;23.77;17.13;;;;;;;22.04;50.50;96066.25;10284683;28;20210;-60
2022/06/01 14:56:59;;;;;;;2.92;2.10;;;;;;;21.20;50.91;96051.84;10281981;28;20199;-61
2022/06/01 15:01:59;;;;;;;3.97;1.75;;;;;;;20.74;54.36;96132.75;10283198;28;20222;-58
2022/06/01 15:07:00;;;;;;;1.75;1.50;;;;;;;19.73;58.03;96176.97;10284254;28;20632;-57
2022/06/01 15:12:01;;;;;;;3.47;1.73;;;;;;;18.93;61.65;96263.00;10281976;28;20796;-58
2022/06/01 15:17:04;;;;;;;4.43;1.63;;;;;;;20.01;60.59;96257.19;10284345;28;20191;-60
2022/06/01 15:22:05;;;;;;;2.60;1.55;;;;;;;23.22;52.03;96127.53;10282933;28;20231;-55
2022/06/01 15:27:06;;;;;;;1.88;1.55;;;;;;;24.38;47.37;96058.38;10282744;28;20198;-61
2022/06/01 15:42:47;;;;;;;3.78;1.67;;;;;;;23.04;52.86;96174.06;10281871;28;20692;-61
2022/06/01 15:47:54;;;;;;;2.10;1.50;;;;;;;24.83;47.36;96099.81;10282159;28;20206;-59
2022/06/01 15:52:54;;;;;;;2.58;1.50;;;;;;;23.88;47.96;96083.75;10264982;28;20261;-61
2022/06/01 15:57:54;;;;;;;2.90;1.40;;;;;;;22.01;51.33;96125.41;10282701;28;20256;-61
2022/06/01 16:02:55;;;;;;;3.25;1.20;;;;;;;22.52;50.51;96125.34;10284916;28;20226;-58
2022/06/01 16:07:55;;;;;;;3.65;1.45;;;;;;;22.53;50.30;96115.50;10286290;28;20194;-61
2022/06/01 16:12:56;;;;;;;1.38;1.20;;;;;;;22.06;51.23;96141.50;10286003;28;20230;-61
2022/06/01 16:17:56;;;;;;;3.28;1.40;;;;;;;21.20;53.91;96187.72;10286494;28;20736;-59
2022/06/01 16:22:57;;;;;;;4.18;1.70;;;;;;;21.01;54.12;96179.09;10286438;28;20788;-60
2022/06/01 16:27:57;;;;;;;3.45;1.60;;;;;;;20.22;56.81;96222.06;10279864;28;20653;-61
2022/06/01 16:32:58;;;;;;;4.82;2.08;;;;;;;19.95;57.55;96240.28;10278920;28;20233;-61
2022/06/01 16:37:59;;;;;;;2.45;2.08;;;;;;;19.51;58.61;96261.72;10283128;28;20728;-59
2022/06/01 16:43:01;;;;;;;1.75;1.60;;;;;;;19.45;58.54;96251.16;10277411;28;20226;-61
2022/06/01 16:48:02;;;;;;;2.10;1.90;;;;;;;18.74;61.58;96312.56;10282753;28;20214;-61
2022/06/01 16:53:02;;;;;;;2.25;1.80;;;;;;;18.41;64.10;96352.59;10282449;28;20294;-61
2022/06/01 16:58:03;;;;;;;3.97;1.75;;;;;;;18.35;65.88;96373.66;10281732;28;20209;-59
2022/06/01 17:03:04;;;;;;;2.00;1.60;;;;;;;18.77;64.31;96343.16;10283466;28;20630;-59
2022/06/01 17:08:05;;;;;;;2.15;1.73;;;;;;;18.07;65.16;96338.75;10278504;28;20213;-61
2022/06/01 17:13:05;;;;;;;5.15;1.90;;;;;;;18.28;65.32;96330.47;10281842;28;20238;-61
2022/06/01 17:18:06;;;;;;;3.67;1.67;;;;;;;17.69;65.81;96318.34;10284984;28;20206;-61
2022/06/01 17:23:07;;;;;;;2.00;1.58;;;;;;;17.85;66.43;96335.59;10270891;28;20324;-60
2022/06/01 17:28:08;;;;;;;2.22;1.50;;;;;;;17.71;65.17;96319.75;10289879;28;20226;-60
2022/06/01 17:33:15;;;;;;;2.17;1.60;;;;;;;17.27;67.32;96372.50;10291863;28;20214;-59
2022/06/01 17:38:15;;;;;;;3.28;1.77;;;;;;;17.25;68.82;96402.81;10291733;28;20202;-60
2022/06/01 17:43:15;;;;;;;4.22;2.28;;;;;;;17.13;69.97;96399.97;10291599;28;20222;-59
2022/06/01 17:48:23;;;;;;;2.17;1.65;;;;;;;17.20;69.14;96384.91;10291675;28;20195;-58
2022/06/01 17:53:24;;;;;;;4.05;2.20;;;;;;;16.88;68.93;96391.88;10291476;28;20215;-60
2022/06/01 17:58:24;;;;;;;1.80;1.70;;;;;;;17.00;70.08;96407.94;10291296;28;20198;-58
2022/06/01 18:03:25;;;;;;;2.30;1.98;;;;;;;16.81;71.98;96433.34;10291716;28;20234;-57
2022/06/01 18:08:27;;;;;;;1.65;1.52;;;;;;;16.84;72.00;96420.53;10291100;28;20198;-57
2022/06/01 18:13:27;;;;;;;3.10;1.50;;;;;;;16.80;72.32;96429.91;10289879;28;20747;-57
2022/06/01 18:18:28;;;;;;;2.70;1.92;;;;;;;16.35;72.70;96426.97;10287800;28;20217;-58
2022/06/01 18:23:28;;;;;;;4.13;1.80;;;;;;;16.81;71.65;96404.25;10289579;28;20709;-55
2022/06/01 18:28:30;;;;;;;3.67;1.70;;;;;;;15.81;77.60;96450.56;10289721;28;20575;-59
2022/06/01 18:33:31;;;;;;;2.60;1.60;;;;;;;15.95;77.59;96435.59;10288138;28;20219;-55
2022/06/01 18:38:31;;;;;;;2.20;1.90;;;;;;;15.25;80.71;96453.25;10290476;28;20669;-56
2022/06/01 18:43:32;;;;;;;3.63;2.00;;;;;;;14.03;91.13;96447.84;10290220;28;20229;-51
2022/06/01 18:48:34;;;;;;;4.68;2.25;;;;;;;13.71;99.04;96447.22;10288396;28;20194;-51
2022/06/01 18:53:34;;;;;;;1.90;1.80;;;;;;;13.88;100.00;96445.22;10294306;28;20210;-56
2022/06/01 18:58:35;;;;;;;2.42;1.65;;;;;;;13.18;100.00;96449.09;10287629;28;20213;-50
2022/06/01 19:03:37;;;;;;;3.08;2.25;;;;;;;12.52;100.00;96456.72;10249164;28;20702;-51
2022/06/01 19:08:37;;;;;;;4.20;2.35;;;;;;;12.26;100.00;96456.03;10249086;28;20188;-50
2022/06/01 19:13:38;;;;;;;4.93;2.38;;;;;;;12.02;100.00;96457.00;10267628;28;20238;-52
2022/06/01 19:18:39;;;;;;;2.88;2.33;;;;;;;12.10;100.00;96459.59;10267459;28;20198;-51
2022/06/01 19:23:39;;;;;;;6.03;2.92;;;;;;;11.74;100.00;96474.97;10269740;28;20317;-52
2022/06/01 19:28:44;;;;;;;4.75;2.20;;;;;;;11.79;100.00;96464.75;10288150;28;20203;-55
2022/06/01 19:33:46;;;;;;;2.45;2.22;;;;;;;11.46;100.00;96471.94;10287856;28;20206;-55
2022/06/01 19:44:05;;;;;;;3.13;2.25;;;;;;;11.23;100.00;96480.50;10287289;28;20226;-54
2022/06/01 19:49:07;;;;;;;5.00;2.40;;;;;;;10.94;100.00;96488.88;10277295;28;20592;-50
2022/06/01 19:54:08;;;;;;;2.63;2.43;;;;;;;11.03;100.00;96493.97;10263774;28;20678;-52
2022/06/01 19:59:10;;;;;;;3.00;2.33;;;;;;;10.87;100.00;96500.03;10264313;28;20205;-52
2022/06/01 20:04:10;;;;;;;3.45;2.60;;;;;;;10.91;100.00;96494.47;10263636;28;20372;-52
2022/06/01 20:09:11;;;;;;;5.43;3.00;;;;;;;10.93;100.00;96497.72;10264011;28;20191;-51
2022/06/01 20:14:11;;;;;;;4.63;2.70;;;;;;;10.84;100.00;96495.13;10262192;28;20227;-53
2022/06/01 20:19:12;;;;;;;6.40;3.30;;;;;;;10.53;100.00;96492.28;10287366;28;20202;-55
2022/06/01 20:24:12;;;;;;;4.83;2.97;;;;;;;10.62;100.00;96499.19;10290794;28;20276;-57
2022/06/01 20:29:13;;;;;;;4.43;3.73;;;;;;;10.41;100.00;96507.47;10302086;28;20580;-53
2022/06/01 20:34:13;;;;;;;4.73;3.33;;;;;;;10.49;100.00;96506.69;10303809;28;20230;-55
2022/06/01 20:39:15;;;;;;;7.03;3.50;;;;;;;10.28;100.00;96518.41;10300325;28;20222;-52
2022/06/01 20:44:15;;;;;;;5.03;3.53;;;;;;;10.21;100.00;96530.47;10299895;28;20577;-54
2022/06/01 20:49:17;;;;;;;6.43;3.47;;;;;;;10.16;100.00;96535.38;10278253;28;20199;-56
2022/06/01 20:54:18;;;;;;;4.70;3.20;;;;;;;9.89;100.00;96557.34;10263931;28;20220;-51
2022/06/01 20:59:18;;;;;;;4.43;3.40;;;;;;;9.87;100.00;96560.09;10278454;28;20218;-53
2022/06/01 21:04:18;;;;;;;6.83;3.87;;;;;;;9.74;100.00;96571.00;10271775;28;20233;-51
2022/06/01 21:09:19;;;;;;;4.00;3.53;;;;;;;9.75;100.00;96575.25;10270709;28;20602;-55
2022/06/01 21:14:19;;;;;;;4.83;3.80;;;;;;;9.60;100.00;96582.00;10268933;28;20242;-51
2022/06/01 21:19:21;;;;;;;4.23;3.83;;;;;;;9.55;100.00;96589.50;10283793;28;20301;-53
2022/06/01 21:24:21;;;;;;;3.70;3.40;;;;;;;9.47;100.00;96603.34;10292156;28;20221;-52
2022/06/01 21:29:21;;;;;;;3.83;3.50;;;;;;;9.15;100.00;96612.56;10292932;28;20657;-53
2022/06/01 21:34:22;;;;;;;4.80;3.33;;;;;;;9.13;100.00;96621.50;10291963;28;20217;-53
2022/06/01 21:39:22;;;;;;;3.73;3.43;;;;;;;8.79;100.00;96623.00;10336904;23;20236;-52
2022/06/01 21:44:22;;;;;;;9.97;4.37;;;;;;;8.72;100.00;96629.78;10335649;28;20197;-52
2022/06/01 21:49:23;;;;;;;4.60;3.97;;;;;;;8.58;100.00;96628.50;10335169;28;20245;-52
2022/06/01 21:54:23;;;;;;;4.57;4.10;;;;;;;8.14;100.00;96634.28;10335183;28;20568;-51
2022/06/01 21:59:24;;;;;;;5.67;4.47;;;;;;;7.90;100.00;96647.00;10334822;28;20232;-52
2022/06/01 22:04:27;;;;;;;6.40;4.37;;;;;;;7.89;100.00;96645.34;10369745;28;20204;-52
2022/06/01 22:09:28;;;;;;;7.00;4.73;;;;;;;7.81;100.00;96644.28;10375608;28;20710;-54
2022/06/01 22:14:28;;;;;;;4.73;4.23;;;;;;;7.90;100.00;96645.22;10339344;28;20198;-57
2022/06/01 22:19:28;;;;;;;8.07;4.50;;;;;;;7.84;100.00;96638.78;10334214;28;20236;-54
2022/06/01 22:24:29;;;;;;;6.23;4.80;;;;;;;7.85;100.00;96643.00;10333920;28;20186;-57
2022/06/01 22:29:31;;;;;;;5.40;4.90;;;;;;;7.81;100.00;96653.88;10333741;28;20210;-53
2022/06/01 22:37:14;;;;;;;4.67;4.27;;;;;;;7.73;100.00;96662.38;10333514;28;20193;-53
2022/06/01 22:39:54;;;;;;;4.23;3.83;;;;;;;7.63;100.00;96665.03;10333007;28;20336;-55
2022/06/01 22:45:07;;;;;;;7.37;4.60;;;;;;;7.10;100.00;96668.84;10332016;28;20225;-57
2022/06/01 22:50:11;;;;;;;11.30;4.63;;;;;;;7.22;100.00;96684.38;10365281;28;20217;-52
2022/06/01 22:55:12;;;;;;;5.20;4.73;;;;;;;7.22;100.00;96681.78;10347400;28;20198;-58
2022/06/01 23:00:12;;;;;;;7.33;4.37;;;;;;;7.21;100.00;96683.53;10332191;28;20312;-55
2022/06/01 23:05:14;;;;;;;5.50;4.70;;;;;;;7.11;100.00;96686.16;10332659;28;20260;-57
2022/06/01 23:10:15;;;;;;;5.97;4.50;;;;;;;7.09;100.00;96690.69;10332113;28;20210;-56
2022/06/01 23:15:15;;;;;;;8.07;4.60;;;;;;;6.99;100.00;96686.41;10330771;28;20189;-55
2022/06/01 23:20:31;;;;;;;4.83;4.40;;;;;;;6.90;100.00;96681.03;10331861;28;20324;-55
2022/06/01 23:25:33;;;;;;;6.83;5.20;;;;;;;6.86;100.00;96687.50;10331386;28;20628;-58
2022/06/01 23:31:04;;;;;;;8.60;4.83;;;;;;;6.97;100.00;96694.38;10331540;28;20238;-55
2022/06/01 23:36:43;;;;;;;4.97;4.47;;;;;;;6.97;100.00;96696.97;10331016;28;20232;-58
2022/06/01 23:41:53;;;;;;;7.87;4.73;;;;;;;6.89;100.00;96702.00;10329711;28;20233;-57
2022/06/01 23:47:10;;;;;;;7.00;4.27;;;;;;;6.79;100.00;96723.63;10330932;28;20595;-59
2022/06/01 23:52:48;;;;;;;6.37;5.20;;;;;;;6.83;100.00;96705.13;10331095;28;20194;-58
2022/06/01 23:58:12;;;;;;;5.37;4.60;;;;;;;6.89;100.00;96710.66;10330819;28;20700;-57
